NEODyS-2

Near Earth Objects - Dynamic Site
NEODyS ∴ Observatories ∴ Site 691 ∴ Obs & residuals
Contact »
691  ▹ 
OBSERVATIONS AND RESIDUALS

691-Steward Observatory, Kitt Peak-Spacewatch

Detections | Residuals | Detections & Residuals

[1-200] [201-400] [401-600] [601-800] [801-1000] [1001-1200] [1201-1400] [1401-1600] [1601-1800] [1801-2000] [2001-2200] [2201-2400] [2401-2600] [2601-2800] [2801-3000] [3001-3200] [3201-3400] [3401-3600] [3601-3800] [3801-4000] [4001-4200] [4201-4400] [4401-4600] [4601-4800] [4801-5000] [5001-5200] [5201-5400] [5401-5600] [5601-5800] [5801-6000] [6001-6200] [6201-6400] [6401-6600] [6601-6800] [6801-7000] [7001-7200] [7201-7400] [7401-7600] [7601-7800] [7801-8000] [8001-8200] [8201-8400] [8401-8600] [8601-8800] [8801-9000] [9001-9200] [9201-9400] [9401-9600] [9601-9800] [9801-10000] [10001-10200] [10201-10400] [10401-10600] [10601-10800] [10801-11000] [11001-11200] [11201-11400] [11401-11600] [11601-11800] [11801-12000] [12001-12200] [12201-12400] [12401-12600] [12601-12800] [12801-13000] [13001-13200] [13201-13400] [13401-13600] [13601-13800] [13801-14000] [14001-14200] [14201-14400] [14401-14600] [14601-14800] [14801-15000] [15001-15200] [15201-15400] [15401-15600] [15601-15800] [15801-16000] [16001-16200] [16201-16400] [16401-16600] [16601-16800] [16801-17000] [17001-17200] [17201-17400] [17401-17600] [17601-17800] [17801-18000] [18001-18200] [18201-18400] [18401-18600] [18601-18800] [18801-19000] [19001-19200] [19201-19400] [19401-19600] [19601-19800] [19801-20000] [20001-20200] [20201-20400] [20401-20600] [20601-20800] [20801-21000] [21001-21200] [21201-21400] [21401-21600] [21601-21800] [21801-22000] [22001-22200] [22201-22400] [22401-22600] [22601-22800] [22801-23000] [23001-23200] [23201-23400] [23401-23600] [23601-23800] [23801-24000] [24001-24200] [24201-24400] [24401-24600] [24601-24800] [24801-25000] [25001-25200] [25201-25400] [25401-25600] [25601-25800] [25801-26000] [26001-26200] [26201-26400] [26401-26600] [26601-26800] [26801-27000] [27001-27200] [27201-27400] [27401-27600] [27601-27800] [27801-28000] [28001-28200] [28201-28400] [28401-28600] [28601-28800] [28801-29000] [29001-29200] [29201-29400] [29401-29600] [29601-29800] [29801-30000] [30001-30200] [30201-30400] [30401-30600] [30601-30800] [30801-31000] [31001-31200] [31201-31400] [31401-31600] [31601-31800] [31801-32000] [32001-32200] [32201-32400] [32401-32600] [32601-32800] [32801-33000] [33001-33200] [33201-33400] [33401-33600] [33601-33800] [33801-34000] [34001-34200] [34201-34400] [34401-34600] [34601-34800] [34801-35000] [35001-35200] [35201-35400] [35401-35600] [35601-35800] [35801-36000] [36001-36200] [36201-36400] [36401-36600] [36601-36800] [36801-37000] [37001-37200] [37201-37400] [37401-37600] [37601-37800] [37801-38000] [38001-38200] [38201-38400] [38401-38600] [38601-38800] [38801-39000] [39001-39200] [39201-39400] [39401-39600] [39601-39800] [39801-40000] [40001-40200] [40201-40400] [40401-40600] [40601-40800] [40801-41000] [41001-41200] [41201-41400] [41401-41600] [41601-41800] [41801-42000] [42001-42200] [42201-42400] [42401-42600] [42601-42800] [42801-43000] [43001-43200] [43201-43400] [43401-43600] [43601-43800] [43801-44000] [44001-44200] [44201-44400] [44401-44600] [44601-44800] [44801-45000] [45001-45200] [45201-45400] [45401-45600] [45601-45800] [45801-46000] [46001-46200] [46201-46400] [46401-46600] [46601-46800] [46801-47000] [47001-47200] [47201-47400] [47401-47600] [47601-47800] [47801-48000] [48001-48200] [48201-48400] [48401-48600] [48601-48800] [48801-49000] [49001-49200] [49201-49400] [49401-49600] [49601-49800] [49801-50000] [50001-50200] [50201-50400] [50401-50600] [50601-50741]

Designation T Tech N Date Right Ascension Declination Apparent Magnitude Star Catalog Site code χ Used A Used M
yr-mo-day precision hr:min:sec precision rms F bias residual deg min sec precision rms F bias residual mag/col rms residual
1998HL49 O c 1998-05-02.31792 1.000E-05 15:27:49.460 1.500E-01 0.600 F -0.122 -0.147 -11° 04' 16.70" 1.000E-01 0.600 F 0.021 0.223 19.6 V 0.70 -0.11 i 691 0.45 Yes Yes
1998JH2 O c 1998-05-03.15304 1.000E-05 12:45:38.640 1.500E-01 0.600 F 0.129 1.289 +00° 34' 00.90" 1.000E-01 0.600 F -0.487 0.013 20.2 V 0.70 0.17 i 691 2.16 Yes Yes
1998JH2 O c 1998-05-03.17434 1.000E-05 12:45:37.340 1.500E-01 0.600 F 0.129 0.758 +00° 34' 04.30" 1.000E-01 0.600 F -0.487 -0.244 20.0 V 0.70 -0.03 i 691 1.33 Yes Yes
1998JH2 O c 1998-05-03.19535 1.000E-05 12:45:36.070 1.500E-01 0.600 F 0.129 0.437 +00° 34' 06.80" 1.000E-01 0.600 F -0.487 -1.347 20.0 V 0.70 -0.03 i 691 2.37 Yes Yes
1998HG49 O c 1998-05-03.20432 1.000E-05 12:27:13.800 1.500E-01 0.600 F 0.239 0.109 +00° 27' 02.90" 1.000E-01 0.600 F -0.796 -0.541 21.4 V 0.70 0.13 i 691 0.93 Yes Yes
1998HG49 O c 1998-05-03.20813 1.000E-05 12:27:13.530 1.500E-01 0.600 F 0.239 0.652 +00° 27' 02.60" 1.000E-01 0.600 F -0.796 0.142 22.4 V 0.70 1.13 i 691 1.13 Yes Yes
1998HG49 O c 1998-05-03.21209 1.000E-05 12:27:13.150 1.500E-01 0.600 F 0.239 -0.275 +00° 27' 00.90" 1.000E-01 0.600 F -0.796 -0.535 20.8 V 0.70 -0.47 i 691 1.01 Yes Yes
1998HH49 O c 1998-05-03.21868 1.000E-05 11:57:06.780 1.500E-01 0.600 F 0.497 -0.262 -06° 56' 46.40" 1.000E-01 0.600 F 0.534 0.637 21.0 V 0.70 0.61 i 691 1.20 Yes Yes
1998HH49 O c 1998-05-03.23409 1.000E-05 11:57:02.650 1.500E-01 0.600 F 0.497 0.805 -06° 56' 50.00" 1.000E-01 0.600 F 0.534 -0.275 20.9 V 0.70 0.51 i 691 1.49 Yes Yes
1998HH49 O c 1998-05-03.24531 1.000E-05 11:56:59.500 1.500E-01 0.600 F 0.497 -0.579 -06° 56' 51.80" 1.000E-01 0.600 F 0.534 -0.135 21.1 V 0.70 0.71 i 691 1.04 Yes Yes
1998HL49 O c 1998-05-04.43349 1.000E-05 15:24:01.760 1.500E-01 0.600 F -0.134 -0.107 -10° 40' 25.40" 1.000E-01 0.600 F 0.021 -0.044 i 691 0.19 Yes No
1998HL49 O c 1998-05-04.43734 1.000E-05 15:24:01.380 1.500E-01 0.600 F -0.134 0.498 -10° 40' 22.40" 1.000E-01 0.600 F 0.021 0.364 i 691 1.03 Yes No
1998HL49 O c 1998-05-04.44126 1.000E-05 15:24:00.900 1.500E-01 0.600 F -0.134 -0.261 -10° 40' 20.10" 1.000E-01 0.600 F 0.021 0.024 i 691 0.44 Yes No
1998HK49 O c 1998-05-04.44688 1.000E-05 15:15:03.790 1.500E-01 0.600 F -0.269 0.473 -06° 59' 25.50" 1.000E-01 0.600 F 0.064 0.562 i 691 1.23 Yes No
1998HK49 O c 1998-05-04.45069 1.000E-05 15:15:03.090 1.500E-01 0.600 F -0.269 -0.149 -06° 59' 35.00" 1.000E-01 0.600 F 0.064 -0.087 i 691 0.29 Yes No
1998HK49 O c 1998-05-04.45448 1.000E-05 15:15:02.420 1.500E-01 0.600 F -0.269 -0.391 -06° 59' 42.30" 1.000E-01 0.600 F 0.064 1.414 i 691 2.49 Yes No
1998JH2 O c 1998-05-17.23697 1.000E-05 12:34:34.270 1.500E-01 0.600 F 0.408 0.016 +00° 56' 08.10" 1.000E-01 0.600 F -0.650 -0.051 21.5 V 0.70 1.25 i 691 0.09 Yes Yes
1998JH2 O c 1998-05-17.24240 1.000E-05 12:34:34.100 1.500E-01 0.600 F 0.408 0.521 +00° 56' 08.20" 1.000E-01 0.600 F -0.650 -0.029 22.1 V 0.70 1.85 i 691 0.87 Yes Yes
1998JH2 O c 1998-05-17.25165 1.000E-05 12:34:33.720 1.500E-01 0.600 F 0.408 0.020 +00° 56' 08.60" 1.000E-01 0.600 F -0.650 0.239 21.8 V 0.70 1.54 i 691 0.40 Yes Yes
1998HL49 O c 1998-05-17.26248 1.000E-05 15:02:29.490 1.500E-01 0.600 F -0.197 0.171 -08° 31' 44.20" 1.000E-01 0.600 F 0.379 0.042 20.1 V 0.70 0.13 i 691 0.29 Yes Yes
1998HL49 O c 1998-05-17.26789 1.000E-05 15:02:28.980 1.500E-01 0.600 F -0.197 0.188 -08° 31' 41.40" 1.000E-01 0.600 F 0.379 0.027 21.1 V 0.70 1.13 i 691 0.32 Yes Yes
1998HL49 O c 1998-05-17.27399 1.000E-05 15:02:28.400 1.500E-01 0.600 F -0.197 0.133 -08° 31' 38.30" 1.000E-01 0.600 F 0.379 -0.048 20.2 V 0.70 0.23 i 691 0.24 Yes Yes
1998JH2 O c 1998-05-19.15652 1.000E-05 12:33:28.910 1.500E-01 0.600 F 0.408 -0.840 +00° 56' 14.80" 1.000E-01 0.600 F -0.650 -0.179 20.8 V 0.70 0.52 i 691 1.44 Yes Yes
1998JH2 O c 1998-05-19.17736 1.000E-05 12:33:28.220 1.500E-01 0.600 F 0.408 -0.477 +00° 56' 14.70" 1.000E-01 0.600 F -0.650 -0.122 20.8 V 0.70 0.52 i 691 0.82 Yes Yes
1998JH2 O c 1998-05-19.19810 1.000E-05 12:33:27.500 1.500E-01 0.600 F 0.408 -0.626 +00° 56' 14.10" 1.000E-01 0.600 F -0.650 -0.560 20.7 V 0.70 0.42 i 691 1.40 Yes Yes
1998KG3 O c 1998-05-22.36028 1.000E-05 15:26:12.040 1.500E-01 0.600 F 0.344 -0.559 -02° 34' 18.30" 1.000E-01 0.600 F -0.672 0.058 20.3 V 0.70 0.16 i 691 0.97 Yes Yes
1998KG3 O c 1998-05-22.38201 1.000E-05 15:26:09.850 1.500E-01 0.600 F 0.344 -0.112 -02° 33' 56.70" 1.000E-01 0.600 F -0.672 0.128 20.3 V 0.70 0.16 i 691 0.30 Yes Yes
1998KG3 O c 1998-05-22.40297 1.000E-05 15:26:07.700 1.500E-01 0.600 F 0.344 -0.598 -02° 33' 36.40" 1.000E-01 0.600 F -0.672 -0.336 20.0 V 0.70 -0.15 i 691 1.18 Yes Yes
1998KG3 O c 1998-05-23.28400 1.000E-05 15:24:51.100 1.500E-01 0.600 F 0.344 0.256 -02° 19' 30.80" 1.000E-01 0.600 F -0.672 0.644 20.5 V 0.70 0.31 i 691 1.16 Yes Yes
1998KG3 O c 1998-05-23.30624 1.000E-05 15:24:48.850 1.500E-01 0.600 F 0.344 0.240 -02° 19' 10.30" 1.000E-01 0.600 F -0.672 0.375 20.8 V 0.70 0.61 i 691 0.74 Yes Yes
1998KG3 O c 1998-05-23.32845 1.000E-05 15:24:46.560 1.500E-01 0.600 F 0.344 -0.537 -02° 18' 51.20" 1.000E-01 0.600 F -0.672 -1.262 20.8 V 0.70 0.60 i 691 2.31 Yes Yes
1998KG3 O c 1998-05-24.22116 1.000E-05 15:23:31.370 1.500E-01 0.600 F 0.069 0.101 -02° 05' 20.90" 1.000E-01 0.600 F -0.795 0.550 20.9 V 0.70 0.66 i 691 0.94 Yes Yes
1998KG3 O c 1998-05-24.22540 1.000E-05 15:23:30.930 1.500E-01 0.600 F 0.069 -0.314 -02° 05' 16.90" 1.000E-01 0.600 F -0.795 0.830 20.4 V 0.70 0.16 i 691 1.50 Yes Yes
1998KG3 O c 1998-05-24.22984 1.000E-05 15:23:30.540 1.500E-01 0.600 F 0.069 0.320 -02° 05' 13.50" 1.000E-01 0.600 F -0.795 0.334 20.6 V 0.70 0.36 i 691 0.77 Yes Yes
1999FB O C H 1998-05-24.23995 1.000E-05 13:37:02.050 1.500E-01 0.600 F 0.323 -0.435 -14° 11' 53.70" 1.000E-01 0.600 F 0.158 0.356 21.4 V 0.70 1.28 c 691 0.94 Yes Yes
1999FB O C H 1998-05-24.26164 1.000E-05 13:36:59.720 1.500E-01 0.600 F 0.323 -0.495 -14° 11' 47.00" 1.000E-01 0.600 F 0.158 0.650 22.3 V 0.70 2.18 c 691 1.37 Yes No
1999FB O C H 1998-05-24.31383 1.000E-05 13:36:54.170 1.500E-01 0.600 F 0.357 -0.187 -14° 11' 31.70" 1.000E-01 0.600 F 0.222 0.359 21.5 V 0.70 1.38 c 691 0.68 Yes Yes
1998KG3 O c 1998-05-26.35429 1.000E-05 15:20:37.050 1.500E-01 0.600 F 0.069 0.341 -01° 36' 13.20" 1.000E-01 0.600 F -0.795 0.516 20.4 V 0.70 0.04 i 691 1.03 Yes Yes
1998KG3 O c 1998-05-26.35799 1.000E-05 15:20:36.680 1.500E-01 0.600 F 0.069 -0.283 -01° 36' 10.70" 1.000E-01 0.600 F -0.795 0.199 20.4 V 0.70 0.04 i 691 0.60 Yes Yes
1998KG3 O c 1998-05-26.36200 1.000E-05 15:20:36.340 1.500E-01 0.600 F 0.069 -0.056 -01° 36' 07.70" 1.000E-01 0.600 F -0.795 0.146 20.9 V 0.70 0.54 i 691 0.27 Yes Yes
1998KY26 O c 1998-05-28.22782 1.000E-05 15:25:12.670 1.500E-01 0.600 F 0.685 -1.046 -03° 02' 56.60" 1.000E-01 0.600 F 0.083 0.361 18.9 V 0.70 -0.19 i 691 1.88 Yes Yes
1998KY26 O c 1998-05-28.26943 1.000E-05 15:25:16.750 1.500E-01 0.600 F 0.685 -1.169 -03° 01' 59.10" 1.000E-01 0.600 F 0.083 0.327 18.9 V 0.70 -0.18 i 691 2.06 Yes Yes
1998KG3 O c 1998-05-30.33694 1.000E-05 15:15:58.340 1.500E-01 0.600 F -0.412 0.848 -00° 53' 12.80" 1.000E-01 0.600 F -0.602 0.231 21.8 V 0.70 1.22 i 691 1.48 Yes Yes
1998KG3 O c 1998-05-30.34088 1.000E-05 15:15:58.000 1.500E-01 0.600 F -0.412 0.100 -00° 53' 10.70" 1.000E-01 0.600 F -0.602 0.200 21.2 V 0.70 0.62 i 691 0.37 Yes Yes
1998KG3 O c 1998-05-30.34620 1.000E-05 15:15:57.600 1.500E-01 0.600 F -0.412 -0.039 -00° 53' 07.30" 1.000E-01 0.600 F -0.602 0.724 20.8 V 0.70 0.22 i 691 1.22 Yes Yes
2015MT96 O C 1998-05-30.36695 1.000E-05 16:40:02.070 1.500E-01 0.600 F -0.478 -1.030 -00° 07' 45.20" 1.000E-01 0.600 F -0.456 -0.575 22.3 V 0.70 1.76 a 691 2.11 Yes Yes
2015MT96 O C 1998-05-30.38809 1.000E-05 16:40:00.400 1.500E-01 0.600 F -0.478 -0.909 -00° 07' 29.60" 1.000E-01 0.600 F -0.456 -0.267 23.3 V 0.70 2.76 a 691 1.72 Yes No
2015MT96 O C 1998-05-30.40944 1.000E-05 16:39:58.700 1.500E-01 0.600 F -0.478 -1.048 -00° 07' 14.50" 1.000E-01 0.600 F -0.456 -0.607 22.0 V 0.70 1.46 a 691 2.17 Yes Yes
1998KY26 O c 1998-05-31.25148 1.000E-05 15:39:25.550 1.500E-01 0.600 F 0.334 -0.057 -01° 32' 14.40" 1.000E-01 0.600 F -0.549 -0.007 18.4 V 0.70 -0.05 i 691 0.10 Yes Yes
1998KY26 O c 1998-05-31.26542 1.000E-05 15:39:28.950 1.500E-01 0.600 F 0.334 -0.235 -01° 31' 41.70" 1.000E-01 0.600 F -0.549 -0.194 18.5 V 0.70 0.05 i 691 0.51 Yes Yes
1998KY26 O c 1998-05-31.27953 1.000E-05 15:39:32.430 1.500E-01 0.600 F 0.334 0.093 -01° 31' 07.90" 1.000E-01 0.600 F -0.549 0.145 18.5 V 0.70 0.06 i 691 0.29 Yes Yes
2015MT96 O C 1998-05-31.35294 1.000E-05 16:38:46.790 1.500E-01 0.600 F -0.478 1.297 +00° 04' 03.60" 1.000E-01 0.600 F -0.456 -0.146 22.5 V 0.70 1.98 a 691 2.38 Yes No
2015MT96 O C 1998-05-31.37358 1.000E-05 16:38:45.090 1.500E-01 0.600 F -0.478 0.828 +00° 04' 18.20" 1.000E-01 0.600 F -0.456 -0.265 22.8 V 0.70 2.28 a 691 1.57 Yes No
2015MT96 O C 1998-05-31.39440 1.000E-05 16:38:43.420 1.500E-01 0.600 F -0.478 0.978 +00° 04' 33.20" 1.000E-01 0.600 F -0.456 -0.108 22.2 V 0.70 1.68 a 691 1.79 Yes Yes
1998KY26 O c 1998-06-01.15747 1.000E-05 15:46:15.680 1.500E-01 0.671 F -0.074 -0.012 -00° 52' 42.50" 1.000E-01 0.671 F -0.557 0.046 18.2 V 0.70 -0.01 i 691 0.07 Yes Yes
1998KY26 O c 1998-06-01.16115 1.000E-05 15:46:17.050 1.500E-01 0.671 F -0.074 0.092 -00° 52' 31.60" 1.000E-01 0.671 F -0.557 0.358 18.0 V 0.70 -0.21 i 691 0.56 Yes Yes
1998KY26 O c 1998-06-01.16488 1.000E-05 15:46:18.420 1.500E-01 0.671 F -0.074 0.036 -00° 52' 21.20" 1.000E-01 0.671 F -0.557 0.013 18.1 V 0.70 -0.11 i 691 0.06 Yes Yes
1998KG3 O c 1998-06-01.30824 1.000E-05 15:14:02.620 1.500E-01 0.600 F -0.666 -0.184 -00° 37' 11.40" 1.000E-01 0.600 F -0.615 0.120 20.8 V 0.70 0.11 i 691 0.38 Yes Yes
1998KG3 O c 1998-06-01.31218 1.000E-05 15:14:02.370 1.500E-01 0.600 F -0.666 -0.003 -00° 37' 09.80" 1.000E-01 0.600 F -0.615 -0.004 20.8 V 0.70 0.11 i 691 0.02 Yes Yes
1998KG3 O c 1998-06-01.31706 1.000E-05 15:14:02.040 1.500E-01 0.600 F -0.666 -0.095 -00° 37' 07.90" 1.000E-01 0.600 F -0.615 -0.238 20.7 V 0.70 0.01 i 691 0.44 Yes Yes
1998KY26 O c 1998-06-01.38868 1.000E-05 15:47:37.790 1.500E-01 0.671 F -0.081 2.098 -00° 41' 12.00" 1.000E-01 0.671 F -0.642 0.737 18.4 V 0.70 0.25 i 691 3.29 No Yes
1998KY26 O c 1998-06-01.39240 1.000E-05 15:47:39.190 1.500E-01 0.671 F -0.081 1.089 -00° 41' 00.70" 1.000E-01 0.671 F -0.642 0.536 18.2 V 0.70 0.05 i 691 1.83 Yes Yes
1998KY26 O c 1998-06-02.17383 1.000E-05 15:55:51.950 1.500E-01 0.600 F 0.305 -0.793 +00° 03' 22.00" 1.000E-01 0.600 F -0.686 -0.059 17.9 V 0.70 -0.01 i 691 1.34 Yes Yes
1998KY26 O c 1998-06-02.17809 1.000E-05 15:55:54.150 1.500E-01 0.600 F 0.305 -0.164 +00° 03' 38.20" 1.000E-01 0.600 F -0.686 0.018 17.8 V 0.70 -0.11 i 691 0.28 Yes Yes
1998KY26 O c 1998-06-02.18235 1.000E-05 15:55:56.280 1.500E-01 0.600 F 0.305 -0.439 +00° 03' 54.30" 1.000E-01 0.600 F -0.686 -0.025 17.8 V 0.70 -0.11 i 691 0.74 Yes Yes
2011XC O c 1998-06-02.26520 1.000E-05 15:29:29.560 1.500E-01 0.600 F 0.583 0.159 -03° 20' 32.40" 1.000E-01 0.600 F -0.331 1.718 20.0 V 0.70 0.24 i 691 2.95 Yes Yes
2011XC O c 1998-06-02.28590 1.000E-05 15:29:25.980 1.500E-01 0.600 F 0.583 0.417 -03° 21' 53.40" 1.000E-01 0.600 F -0.331 1.118 19.6 V 0.70 -0.17 i 691 2.01 Yes Yes
2011XC O c 1998-06-02.30667 1.000E-05 15:29:22.360 1.500E-01 0.600 F 0.583 0.154 -03° 23' 14.10" 1.000E-01 0.600 F -0.331 1.047 19.7 V 0.70 -0.07 i 691 1.80 Yes Yes
1998KY26 O C 1998-06-05.22277 1.000E-05 16:55:26.330 1.500E-01 0.671 F 0.065 -0.436 +05° 33' 28.90" 1.000E-01 0.671 F 0.250 0.018 17.0 V 0.70 0.22 i 691 0.65 Yes Yes
1998KY26 O C 1998-06-05.26575 1.000E-05 16:56:42.390 1.500E-01 0.671 F 0.065 0.305 +05° 41' 28.40" 1.000E-01 0.671 F 0.250 -0.272 16.7 V 0.70 -0.07 i 691 0.61 Yes Yes
1998KY26 O C 1998-06-05.31944 1.000E-05 16:58:18.090 1.500E-01 0.671 F 0.141 0.013 +05° 51' 32.50" 1.000E-01 0.671 F 0.007 0.006 16.8 V 0.70 0.06 i 691 0.02 Yes Yes
1998KY26 O C 1998-06-05.39325 1.000E-05 17:00:34.470 1.500E-01 0.671 F 0.209 -0.175 +06° 05' 29.80" 1.000E-01 0.671 F -0.021 -0.006 16.9 V 0.70 0.18 i 691 0.26 Yes Yes
1998KY26 O C 1998-06-05.43019 1.000E-05 17:01:46.250 1.500E-01 0.671 F 0.209 -0.603 +06° 12' 31.40" 1.000E-01 0.671 F -0.021 -0.451 16.8 V 0.70 0.10 i 691 1.13 Yes Yes
1998MZ O c 1998-06-18.38440 1.000E-05 20:53:10.990 1.500E-01 0.600 F -0.282 -0.110 -17° 04' 49.70" 1.000E-01 0.600 F 0.580 -0.498 17.3 V 0.70 0.13 i 691 0.85 Yes Yes
1998MZ O c 1998-06-18.43957 1.000E-05 20:52:38.320 1.500E-01 0.600 F -0.282 -0.603 -17° 07' 02.60" 1.000E-01 0.600 F 0.580 -0.640 16.9 V 0.70 -0.27 i 691 1.48 Yes Yes
1998MZ O c 1998-06-18.46177 1.000E-05 20:52:25.270 1.500E-01 0.600 F -0.282 0.389 -17° 07' 54.80" 1.000E-01 0.600 F 0.580 -0.060 17.2 V 0.70 0.03 i 691 0.66 Yes Yes
1998MZ O c 1998-06-19.45192 1.000E-05 20:43:11.470 1.500E-01 0.600 F -0.481 -0.858 -17° 45' 29.50" 1.000E-01 0.600 F 0.388 -0.184 17.2 V 0.70 0.04 i 691 1.48 Yes Yes
1998MZ O c 1998-06-19.45586 1.000E-05 20:43:09.230 1.500E-01 0.600 F -0.481 -0.951 -17° 45' 38.00" 1.000E-01 0.600 F 0.388 -0.167 17.2 V 0.70 0.04 i 691 1.62 Yes Yes
1998MZ O c 1998-06-19.45980 1.000E-05 20:43:07.050 1.500E-01 0.600 F -0.481 -0.196 -17° 45' 46.30" 1.000E-01 0.600 F 0.388 0.038 17.1 V 0.70 -0.06 i 691 0.33 Yes Yes
1998MZ O c 1998-06-20.36435 1.000E-05 20:35:03.110 1.500E-01 0.600 F -0.030 0.037 -18° 17' 09.80" 1.000E-01 0.600 F 0.188 0.016 17.2 V 0.70 0.04 i 691 0.07 Yes Yes
1998MZ O c 1998-06-20.37014 1.000E-05 20:34:59.950 1.500E-01 0.600 F -0.030 -0.099 -18° 17' 21.50" 1.000E-01 0.600 F 0.188 0.026 17.3 V 0.70 0.14 i 691 0.17 Yes Yes
1998MZ O c 1998-06-20.37408 1.000E-05 20:34:57.810 1.500E-01 0.600 F -0.030 -0.041 -18° 17' 29.30" 1.000E-01 0.600 F 0.188 0.181 17.1 V 0.70 -0.06 i 691 0.31 Yes Yes
2008SX245 O C 1998-06-23.27846 1.000E-05 15:37:11.870 1.500E-01 0.600 F 1.065 0.558 -03° 21' 08.50" 1.000E-01 0.600 F -0.258 0.472 20.6 V 0.70 -0.18 i 691 1.26 Yes Yes
2008SX245 O C 1998-06-23.29969 1.000E-05 15:37:11.570 1.500E-01 0.600 F 1.065 0.715 -03° 21' 11.50" 1.000E-01 0.600 F -0.258 0.069 20.4 V 0.70 -0.38 i 691 1.28 Yes Yes
1993PC O c 1998-06-23.44674 1.000E-05 23:32:18.160 1.500E-01 0.600 F -0.465 0.253 -05° 31' 35.70" 1.000E-01 0.600 F 0.693 0.573 21.4 V 0.70 0.09 i 691 1.04 Yes Yes
1993PC O c 1998-06-23.46152 1.000E-05 23:32:18.760 1.500E-01 0.600 F -0.465 0.794 -05° 31' 31.70" 1.000E-01 0.600 F 0.693 0.142 21.0 V 0.70 -0.31 i 691 1.34 Yes Yes
1998MZ O C 1998-06-27.37421 1.000E-05 19:42:51.880 1.500E-01 0.600 F 0.296 -1.766 -21° 03' 51.10" 1.000E-01 0.600 F 0.204 -0.112 17.0 V 0.70 -0.24 i 691 2.98 Yes Yes
1998MZ O C 1998-06-27.37809 1.000E-05 19:42:50.470 1.500E-01 0.600 F 0.296 -0.522 -21° 03' 54.30" 1.000E-01 0.600 F 0.204 0.398 17.0 V 0.70 -0.24 i 691 1.10 Yes Yes
1998MZ O C 1998-06-27.38360 1.000E-05 19:42:48.320 1.500E-01 0.600 F 0.296 -0.832 -21° 04' 00.00" 1.000E-01 0.600 F 0.204 -0.049 17.2 V 0.70 -0.04 i 691 1.40 Yes Yes
1991VK O c 1998-07-01.38437 1.000E-05 20:59:12.710 1.500E-01 0.600 F 0.400 0.129 -16° 15' 44.50" 1.000E-01 0.600 F 0.368 0.662 21.7 V 0.70 0.66 i 691 1.12 Yes Yes
1991VK O c 1998-07-01.40593 1.000E-05 20:59:11.570 1.500E-01 0.600 F 0.400 0.433 -16° 15' 47.40" 1.000E-01 0.600 F 0.368 0.399 21.9 V 0.70 0.86 i 691 0.98 Yes Yes
1991VK O c 1998-07-01.42745 1.000E-05 20:59:10.410 1.500E-01 0.600 F 0.400 0.431 -16° 15' 50.10" 1.000E-01 0.600 F 0.368 0.313 22.1 V 0.70 1.06 i 691 0.89 Yes Yes
1998NU O c 1998-07-02.38355 1.000E-05 21:13:50.950 1.500E-01 0.600 F 0.256 0.164 -15° 37' 57.20" 1.000E-01 0.600 F 0.272 0.936 21.3 V 0.70 0.67 i 691 1.58 Yes Yes
1998NU O c 1998-07-02.40506 1.000E-05 21:13:49.940 1.500E-01 0.600 F 0.256 0.246 -15° 38' 01.00" 1.000E-01 0.600 F 0.272 0.620 20.9 V 0.70 0.27 i 691 1.11 Yes Yes
1998NU O c 1998-07-02.42658 1.000E-05 21:13:48.930 1.500E-01 0.600 F 0.256 0.348 -15° 38' 04.80" 1.000E-01 0.600 F 0.272 0.290 21.0 V 0.70 0.37 i 691 0.76 Yes Yes
2000XH47 O C 1998-07-03.30374 1.000E-05 21:08:31.310 1.500E-01 0.600 F 0.905 -0.640 -18° 43' 13.60" 1.000E-01 0.600 F -0.009 0.940 20.3 V 0.70 0.19 i 691 1.90 Yes Yes
2000XH47 O C 1998-07-03.32579 1.000E-05 21:08:30.000 1.500E-01 0.600 F 0.905 -0.818 -18° 42' 50.20" 1.000E-01 0.600 F -0.009 0.877 20.2 V 0.70 0.09 i 691 2.00 Yes Yes
2000XH47 O C 1998-07-03.34756 1.000E-05 21:08:28.690 1.500E-01 0.600 F 0.905 -1.085 -18° 42' 26.30" 1.000E-01 0.600 F -0.009 1.537 20.1 V 0.70 -0.01 i 691 3.14 Yes Yes
1998NU O c 1998-07-03.35759 1.000E-05 21:13:05.900 1.500E-01 0.600 F 0.256 0.063 -15° 40' 36.70" 1.000E-01 0.600 F 0.272 0.617 20.7 V 0.70 0.08 i 691 1.03 Yes Yes
1998NU O c 1998-07-03.36333 1.000E-05 21:13:05.600 1.500E-01 0.600 F 0.256 -0.260 -15° 40' 37.90" 1.000E-01 0.600 F 0.272 0.380 21.1 V 0.70 0.48 i 691 0.77 Yes Yes
1998NU O c 1998-07-03.36903 1.000E-05 21:13:05.350 1.500E-01 0.600 F 0.256 0.112 -15° 40' 38.80" 1.000E-01 0.600 F 0.272 0.435 21.0 V 0.70 0.38 i 691 0.75 Yes Yes
1998NU O c 1998-07-15.35990 1.000E-05 21:02:24.150 1.500E-01 0.600 F 0.400 -0.493 -16° 18' 37.00" 1.000E-01 0.600 F 0.368 0.289 20.4 V 0.70 -0.02 i 691 0.95 Yes Yes
1998NU O c 1998-07-15.38145 1.000E-05 21:02:22.850 1.500E-01 0.600 F 0.400 -0.367 -16° 18' 41.60" 1.000E-01 0.600 F 0.368 0.199 20.6 V 0.70 0.18 i 691 0.69 Yes Yes
1998NU O c 1998-07-15.40299 1.000E-05 21:02:21.530 1.500E-01 0.600 F 0.400 -0.536 -16° 18' 45.80" 1.000E-01 0.600 F 0.368 0.489 20.6 V 0.70 0.18 i 691 1.21 Yes Yes
1998NU O c 1998-07-18.30059 1.000E-05 20:59:27.180 1.500E-01 0.600 F 0.400 -0.325 -16° 29' 01.60" 1.000E-01 0.600 F 0.369 -0.277 20.6 V 0.70 0.23 i 691 0.71 Yes Yes
1998NU O c 1998-07-18.30642 1.000E-05 20:59:26.850 1.500E-01 0.600 F 0.400 0.187 -16° 29' 02.70" 1.000E-01 0.600 F 0.369 -0.110 20.5 V 0.70 0.13 i 691 0.36 Yes Yes
1998NU O c 1998-07-18.31257 1.000E-05 20:59:26.480 1.500E-01 0.600 F 0.400 0.413 -16° 29' 03.70" 1.000E-01 0.600 F 0.369 0.226 20.9 V 0.70 0.53 i 691 0.79 Yes Yes
1998OX4 O c 1998-07-26.30244 1.000E-05 20:56:50.940 1.500E-01 0.600 F 0.099 -0.609 -15° 45' 10.10" 1.000E-01 0.600 F 0.557 -0.163 20.7 V 0.70 0.10 i 691 1.05 Yes Yes
1998OX4 O c 1998-07-26.35354 1.000E-05 20:56:45.160 1.500E-01 0.600 F 0.099 -0.121 -15° 45' 03.80" 1.000E-01 0.600 F 0.557 0.348 20.7 V 0.70 0.11 i 691 0.62 Yes Yes
1998OX4 O c 1998-07-26.37803 1.000E-05 20:56:42.360 1.500E-01 0.600 F 0.099 -0.275 -15° 45' 01.60" 1.000E-01 0.600 F 0.557 -0.393 20.7 V 0.70 0.11 i 691 0.80 Yes Yes
1998OP4 O c 1998-07-27.25259 1.000E-05 20:17:13.390 1.500E-01 0.849 F -0.474 0.353 -01° 14' 47.30" 1.000E-01 0.849 F -0.176 -0.227 18.0 V 0.70 0.23 i 691 0.55 Yes Yes
1998OP4 O c 1998-07-27.25661 1.000E-05 20:17:19.080 1.500E-01 0.849 F -0.474 0.161 -01° 16' 13.80" 1.000E-01 0.849 F -0.176 0.109 18.1 V 0.70 0.33 i 691 0.25 Yes Yes
1998OP4 O c 1998-07-27.26095 1.000E-05 20:17:25.250 1.500E-01 0.849 F -0.474 0.399 -01° 17' 47.80" 1.000E-01 0.849 F -0.176 -0.142 17.6 V 0.70 -0.17 i 691 0.55 Yes Yes
1998OX4 O c 1998-07-27.27160 1.000E-05 20:55:05.790 1.500E-01 0.735 F 0.099 -0.332 -15° 43' 17.20" 1.000E-01 0.735 F 0.557 0.027 21.0 V 0.70 0.49 i 691 0.45 Yes Yes
1998OX4 O c 1998-07-27.27553 1.000E-05 20:55:05.330 1.500E-01 0.735 F 0.099 -0.287 -15° 43' 17.00" 1.000E-01 0.735 F 0.557 -0.190 20.7 V 0.70 0.19 i 691 0.47 Yes Yes
1998OX4 O c 1998-07-27.28138 1.000E-05 20:55:04.640 1.500E-01 0.735 F 0.099 -0.286 -15° 43' 16.10" 1.000E-01 0.735 F 0.557 0.084 20.8 V 0.70 0.30 i 691 0.41 Yes Yes
1998NU O c 1998-07-27.29439 1.000E-05 20:49:57.710 1.500E-01 0.600 F -0.283 -0.369 -17° 01' 50.00" 1.000E-01 0.600 F 0.580 -0.012 20.7 V 0.70 0.51 i 691 0.62 Yes Yes
1998NU O c 1998-07-27.30045 1.000E-05 20:49:57.310 1.500E-01 0.600 F -0.283 -0.355 -17° 01' 51.20" 1.000E-01 0.600 F 0.580 0.127 20.7 V 0.70 0.51 i 691 0.63 Yes Yes
1998NU O c 1998-07-27.30629 1.000E-05 20:49:56.960 1.500E-01 0.600 F -0.283 0.169 -17° 01' 52.50" 1.000E-01 0.600 F 0.580 0.116 20.5 V 0.70 0.31 i 691 0.34 Yes Yes
1998OP4 O c 1998-07-27.31251 1.000E-05 20:18:38.180 1.500E-01 0.849 F -0.474 -0.385 -01° 36' 21.00" 1.000E-01 0.849 F -0.176 0.232 17.3 V 0.70 -0.46 i 691 0.56 Yes Yes
1998OP4 O c 1998-07-27.31954 1.000E-05 20:18:48.130 1.500E-01 0.849 F -0.327 -0.459 -01° 38' 52.50" 1.000E-01 0.849 F -0.166 0.513 17.5 V 0.70 -0.26 i 691 0.85 Yes Yes
1998OP4 O c 1998-07-27.32549 1.000E-05 20:18:56.590 1.500E-01 0.849 F -0.327 0.161 -01° 41' 01.50" 1.000E-01 0.849 F -0.166 -0.026 17.7 V 0.70 -0.06 i 691 0.20 Yes Yes
1998OX4 O c 1998-07-27.40172 1.000E-05 20:54:50.360 1.500E-01 0.735 F 0.099 -0.486 -15° 43' 02.00" 1.000E-01 0.735 F 0.557 -0.061 20.8 V 0.70 0.31 i 691 0.67 Yes Yes
1998OX4 O c 1998-07-27.40579 1.000E-05 20:54:49.890 1.500E-01 0.735 F 0.099 -0.317 -15° 43' 01.60" 1.000E-01 0.735 F 0.557 -0.189 20.9 V 0.70 0.41 i 691 0.50 Yes Yes
1998OX4 O c 1998-07-27.40971 1.000E-05 20:54:49.410 1.500E-01 0.735 F 0.099 -0.553 -15° 43' 00.80" 1.000E-01 0.735 F 0.557 0.101 20.7 V 0.70 0.21 i 691 0.77 Yes Yes
1998OP4 O c 1998-07-27.41834 1.000E-05 20:21:08.620 1.500E-01 0.849 F -0.327 0.440 -02° 14' 24.40" 1.000E-01 0.849 F -0.166 -0.061 17.5 V 0.70 -0.24 i 691 0.63 Yes Yes
1998OP4 O c 1998-07-27.42269 1.000E-05 20:21:14.820 1.500E-01 0.849 F 0.051 -0.449 -02° 15' 58.10" 1.000E-01 0.849 F 0.070 -0.266 17.5 V 0.70 -0.24 i 691 0.73 Yes Yes
1998OP4 O c 1998-07-28.25831 1.000E-05 20:42:14.280 1.500E-01 0.600 F -0.363 0.312 -07° 13' 26.40" 1.000E-01 0.600 F 0.494 -0.359 18.1 V 0.70 0.50 i 691 0.96 Yes Yes
1998OP4 O c 1998-07-28.26230 1.000E-05 20:42:19.900 1.500E-01 0.600 F -0.363 0.125 -07° 14' 50.00" 1.000E-01 0.600 F 0.494 0.034 18.0 V 0.70 0.40 i 691 0.24 Yes Yes
1998QH28 O c 1998-08-23.30800 1.000E-05 22:31:49.930 1.500E-01 0.600 F 0.081 0.051 -05° 50' 17.60" 1.000E-01 0.600 F 0.150 0.161 20.9 V 0.70 0.03 i 691 0.34 Yes Yes
1998QH28 O c 1998-08-23.32908 1.000E-05 22:31:48.520 1.500E-01 0.600 F 0.081 0.079 -05° 49' 10.00" 1.000E-01 0.600 F 0.150 -0.118 20.6 V 0.70 -0.27 i 691 0.29 Yes Yes
1998QH28 O c 1998-08-23.34991 1.000E-05 22:31:47.120 1.500E-01 0.600 F 0.081 -0.008 -05° 48' 02.90" 1.000E-01 0.600 F 0.150 -0.089 20.5 V 0.70 -0.37 i 691 0.18 Yes Yes
1998QH28 O c 1998-08-26.33720 1.000E-05 22:29:10.140 1.500E-01 0.600 F 0.360 0.226 -03° 16' 58.30" 1.000E-01 0.600 F -0.212 -0.454 21.0 V 0.70 0.01 i 691 0.93 Yes Yes
1998QH28 O c 1998-08-26.34142 1.000E-05 22:29:09.860 1.500E-01 0.600 F 0.360 -0.072 -03° 16' 46.10" 1.000E-01 0.600 F -0.212 -0.304 20.2 V 0.70 -0.79 i 691 0.56 Yes Yes
1998QH28 O c 1998-08-26.34651 1.000E-05 22:29:09.480 1.500E-01 0.600 F 0.360 -1.069 -03° 16' 30.20" 1.000E-01 0.600 F -0.212 1.063 20.6 V 0.70 -0.39 i 691 2.75 Yes Yes
1998QB28 O c 1998-08-26.42224 1.000E-05 23:57:04.630 1.500E-01 0.600 F 0.177 -0.362 -00° 18' 20.40" 1.000E-01 0.600 F -0.448 0.274 20.7 V 0.70 0.13 i 691 0.77 Yes Yes
1998QB28 O c 1998-08-26.44343 1.000E-05 23:57:03.380 1.500E-01 0.600 F 0.177 -0.232 -00° 18' 25.40" 1.000E-01 0.600 F -0.448 0.133 20.6 V 0.70 0.03 i 691 0.46 Yes Yes
1998QB28 O c 1998-08-26.46677 1.000E-05 23:57:02.000 1.500E-01 0.600 F 0.177 -0.238 -00° 18' 30.50" 1.000E-01 0.600 F -0.448 0.391 20.7 V 0.70 0.13 i 691 0.78 Yes Yes
1998QH28 O c 1998-08-27.31203 1.000E-05 22:28:22.250 1.500E-01 0.600 F 0.512 0.309 -02° 31' 31.00" 1.000E-01 0.600 F 0.123 0.157 20.8 V 0.70 -0.24 i 691 0.64 Yes Yes
1998QH28 O c 1998-08-27.31599 1.000E-05 22:28:22.000 1.500E-01 0.600 F 0.512 0.114 -02° 31' 20.40" 1.000E-01 0.600 F 0.123 -0.090 21.5 V 0.70 0.46 i 691 0.26 Yes Yes
1998QH28 O c 1998-08-27.31997 1.000E-05 22:28:21.780 1.500E-01 0.600 F 0.512 0.387 -02° 31' 09.70" 1.000E-01 0.600 F 0.123 -0.291 21.6 V 0.70 0.56 i 691 0.87 Yes Yes
1998QB28 O c 1998-08-27.32566 1.000E-05 23:56:15.810 1.500E-01 0.600 F 0.177 -0.275 -00° 21' 52.80" 1.000E-01 0.600 F -0.448 0.098 20.8 V 0.70 0.24 i 691 0.50 Yes Yes
1998QB28 O c 1998-08-27.33577 1.000E-05 23:56:15.200 1.500E-01 0.600 F 0.177 -0.162 -00° 21' 55.00" 1.000E-01 0.600 F -0.448 0.331 21.3 V 0.70 0.74 i 691 0.62 Yes Yes
1998QB28 O c 1998-08-27.34526 1.000E-05 23:56:14.620 1.500E-01 0.600 F 0.177 -0.153 -00° 21' 57.50" 1.000E-01 0.600 F -0.448 0.115 21.2 V 0.70 0.64 i 691 0.32 Yes Yes
1998QH28 O c 1998-08-28.35617 1.000E-05 22:27:31.980 1.500E-01 0.600 F 0.249 0.165 -01° 44' 53.00" 1.000E-01 0.600 F 0.714 0.207 21.2 V 0.70 0.10 i 691 0.46 Yes Yes
1998QH28 O c 1998-08-28.36053 1.000E-05 22:27:31.710 1.500E-01 0.600 F 0.249 -0.140 -01° 44' 42.40" 1.000E-01 0.600 F 0.714 -0.617 20.8 V 0.70 -0.30 i 691 1.11 Yes Yes
1998QH28 O c 1998-08-28.36438 1.000E-05 22:27:31.510 1.500E-01 0.600 F 0.249 0.161 -01° 44' 31.40" 1.000E-01 0.600 F 0.714 0.296 21.1 V 0.70 0.00 i 691 0.59 Yes Yes
1998QH28 O c 1998-08-30.30011 1.000E-05 22:26:05.340 1.500E-01 0.600 F -0.065 0.101 -00° 23' 34.50" 1.000E-01 0.600 F 0.106 0.150 21.2 V 0.70 -0.03 i 691 0.35 Yes Yes
1998QH28 O c 1998-08-30.30386 1.000E-05 22:26:05.110 1.500E-01 0.600 F -0.065 -0.333 -00° 23' 25.30" 1.000E-01 0.600 F 0.106 0.341 22.0 V 0.70 0.77 i 691 0.93 Yes Yes
1998QH28 O c 1998-08-30.30767 1.000E-05 22:26:04.930 1.500E-01 0.600 F -0.065 0.031 -00° 23' 16.90" 1.000E-01 0.600 F 0.106 -0.411 21.7 V 0.70 0.47 i 691 0.83 Yes Yes
1998QB28 O c 1998-08-30.31437 1.000E-05 23:53:23.110 1.500E-01 0.600 F -0.218 0.119 -00° 34' 40.70" 1.000E-01 0.600 F -0.571 0.167 20.5 V 0.70 -0.01 i 691 0.35 Yes Yes
1998QB28 O c 1998-08-30.32468 1.000E-05 23:53:22.450 1.500E-01 0.600 F -0.218 0.350 -00° 34' 43.70" 1.000E-01 0.600 F -0.571 -0.023 20.5 V 0.70 -0.01 i 691 0.60 Yes Yes
1998QB28 O c 1998-08-30.33393 1.000E-05 23:53:21.820 1.500E-01 0.600 F -0.218 0.005 -00° 34' 46.00" 1.000E-01 0.600 F -0.571 0.199 20.5 V 0.70 -0.01 i 691 0.34 Yes Yes
1998QA105 O c 1998-08-30.37822 1.000E-05 23:19:00.060 1.500E-01 0.600 F 0.089 0.407 -03° 35' 55.60" 1.000E-01 0.600 F -0.080 0.225 20.8 V 0.70 0.32 i 691 0.83 Yes Yes
1998QA105 O c 1998-08-30.39627 1.000E-05 23:19:00.020 1.500E-01 0.600 F 0.089 0.678 -03° 35' 22.60" 1.000E-01 0.600 F -0.080 0.161 20.5 V 0.70 0.02 i 691 1.24 Yes Yes
1998QA105 O c 1998-08-30.41429 1.000E-05 23:18:59.910 1.500E-01 0.600 F 0.089 -0.189 -03° 34' 48.90" 1.000E-01 0.600 F -0.080 0.823 20.6 V 0.70 0.12 i 691 1.50 Yes Yes
1998QA105 O c 1998-08-31.23619 1.000E-05 23:19:05.790 1.500E-01 0.735 F 0.067 -0.210 -03° 09' 32.00" 1.000E-01 0.735 F 0.012 0.127 20.6 V 0.70 0.17 i 691 0.35 Yes Yes
1998QA105 O c 1998-08-31.24009 1.000E-05 23:19:05.790 1.500E-01 0.735 F 0.067 -0.049 -03° 09' 24.60" 1.000E-01 0.735 F 0.012 0.283 20.2 V 0.70 -0.23 i 691 0.41 Yes Yes
1998QA105 O c 1998-08-31.24478 1.000E-05 23:19:05.790 1.500E-01 0.735 F 0.067 0.156 -03° 09' 16.50" 1.000E-01 0.735 F 0.012 -0.330 20.5 V 0.70 0.07 i 691 0.52 Yes Yes
1998QB28 O c 1998-08-31.36216 1.000E-05 23:52:19.340 1.500E-01 0.600 F -0.218 0.154 -00° 39' 31.40" 1.000E-01 0.600 F -0.571 -0.219 21.6 V 0.70 1.11 i 691 0.45 Yes Yes
1998QB28 O c 1998-08-31.38310 1.000E-05 23:52:17.950 1.500E-01 0.600 F -0.218 0.349 -00° 39' 36.70" 1.000E-01 0.600 F -0.571 0.381 20.9 V 0.70 0.41 i 691 0.88 Yes Yes
1998QB28 O c 1998-08-31.40472 1.000E-05 23:52:16.500 1.500E-01 0.600 F -0.218 0.301 -00° 39' 43.00" 1.000E-01 0.600 F -0.571 0.173 21.7 V 0.70 1.21 i 691 0.59 Yes Yes
1998QA105 O c 1998-08-31.43615 1.000E-05 23:19:04.930 1.500E-01 0.735 F 0.067 -0.774 -03° 03' 19.80" 1.000E-01 0.735 F 0.012 -0.731 20.3 V 0.70 -0.12 i 691 1.50 Yes Yes
1998QA105 O c 1998-08-31.44014 1.000E-05 23:19:05.040 1.500E-01 0.735 F 0.067 1.057 -03° 03' 11.80" 1.000E-01 0.735 F 0.012 -0.208 20.3 V 0.70 -0.12 i 691 1.52 Yes Yes
1998QA105 O c 1998-08-31.44409 1.000E-05 23:19:05.000 1.500E-01 0.735 F 0.067 0.632 -03° 03' 04.30" 1.000E-01 0.735 F 0.012 -0.112 20.2 V 0.70 -0.22 i 691 0.91 Yes Yes
1998QA105 O c 1998-09-12.36645 1.000E-05 23:19:07.420 1.500E-01 0.600 F 0.206 -0.035 +03° 49' 59.60" 1.000E-01 0.600 F 0.130 -0.239 20.0 V 0.70 0.04 i 691 0.44 Yes Yes
1998QA105 O c 1998-09-12.37216 1.000E-05 23:19:07.350 1.500E-01 0.600 F 0.206 -0.029 +03° 50' 12.30" 1.000E-01 0.600 F 0.130 -0.404 20.0 V 0.70 0.04 i 691 0.74 Yes Yes
1998QA105 O c 1998-09-12.37791 1.000E-05 23:19:07.260 1.500E-01 0.600 F 0.206 -0.329 +03° 50' 25.70" 1.000E-01 0.600 F 0.130 0.043 19.9 V 0.70 -0.06 i 691 0.59 Yes Yes
1998QB28 O c 1998-09-13.26387 1.000E-05 23:38:24.280 1.500E-01 0.600 F -0.466 0.090 -01° 46' 59.70" 1.000E-01 0.600 F 0.376 -0.199 20.1 V 0.70 -0.15 i 691 0.37 Yes Yes
1998QB28 O c 1998-09-13.26925 1.000E-05 23:38:23.930 1.500E-01 0.600 F -0.466 0.459 -01° 47' 01.50" 1.000E-01 0.600 F 0.376 -0.256 20.0 V 0.70 -0.25 i 691 0.89 Yes Yes
1998QB28 O c 1998-09-13.27531 1.000E-05 23:38:23.530 1.500E-01 0.600 F -0.466 0.794 -01° 47' 03.10" 1.000E-01 0.600 F 0.376 0.107 20.1 V 0.70 -0.15 i 691 1.36 Yes Yes
1998QB28 O c 1998-09-15.18917 1.000E-05 23:36:21.600 1.500E-01 0.600 F -0.466 -0.534 -01° 57' 17.20" 1.000E-01 0.600 F 0.376 -0.138 20.4 V 0.70 0.23 i 691 0.94 Yes Yes
1998QB28 O c 1998-09-15.20989 1.000E-05 23:36:20.230 1.500E-01 0.600 F -0.466 -0.207 -01° 57' 23.80" 1.000E-01 0.600 F 0.376 -0.116 20.4 V 0.70 0.23 i 691 0.40 Yes Yes
1998QB28 O c 1998-09-15.23063 1.000E-05 23:36:18.830 1.500E-01 0.600 F -0.466 -0.188 -01° 57' 30.60" 1.000E-01 0.600 F 0.376 -0.295 20.4 V 0.70 0.23 i 691 0.59 Yes Yes
1998SO O c 1998-09-16.39572 1.000E-05 00:50:16.950 1.500E-01 0.949 F -0.153 -0.530 +02° 30' 04.50" 1.000E-01 0.949 F 0.166 -1.372 18.9 V 0.70 0.20 i 691 1.55 Yes Yes
1998SO O c 1998-09-16.41625 1.000E-05 00:50:09.100 1.500E-01 0.949 F -0.271 -0.871 +02° 27' 53.80" 1.000E-01 0.949 F 0.252 -1.498 19.1 V 0.70 0.40 i 691 1.83 Yes Yes
1998SO O c 1998-09-16.43699 1.000E-05 00:50:01.240 1.500E-01 0.949 F -0.271 -0.383 +02° 25' 42.30" 1.000E-01 0.949 F 0.252 -0.895 19.2 V 0.70 0.50 i 691 1.03 Yes Yes
1998SO O c 1998-09-16.45310 1.000E-05 00:49:55.110 1.500E-01 0.949 F -0.271 -0.484 +02° 23' 59.80" 1.000E-01 0.949 F 0.252 -0.710 19.2 V 0.70 0.51 i 691 0.91 Yes Yes
1998SO O c 1998-09-16.45941 1.000E-05 00:49:52.740 1.500E-01 0.949 F -0.271 -0.093 +02° 23' 20.50" 1.000E-01 0.949 F 0.252 0.227 19.4 V 0.70 0.71 i 691 0.26 Yes Yes
1998SO O c 1998-09-16.46420 1.000E-05 00:49:50.950 1.500E-01 0.949 F -0.271 0.327 +02° 22' 49.10" 1.000E-01 0.949 F 0.252 -0.622 19.0 V 0.70 0.31 i 691 0.74 Yes Yes
1998SO O c 1998-09-16.46986 1.000E-05 00:49:48.770 1.500E-01 0.949 F -0.271 -0.166 +02° 22' 13.60" 1.000E-01 0.949 F 0.252 -0.015 18.7 V 0.70 0.01 i 691 0.18 Yes Yes
1998SO O c 1998-09-16.47886 1.000E-05 00:49:45.420 1.500E-01 0.949 F -0.271 0.756 +02° 21' 15.50" 1.000E-01 0.949 F 0.252 -0.687 19.1 V 0.70 0.41 i 691 1.08 Yes Yes
1998SO O c 1998-09-16.49820 1.000E-05 00:49:38.070 1.500E-01 0.949 F -0.271 0.289 +02° 19' 12.50" 1.000E-01 0.949 F 0.252 -0.215 18.7 V 0.70 0.01 i 691 0.38 Yes Yes
1998SO O c 1998-09-16.50489 1.000E-05 00:49:35.590 1.500E-01 0.949 F -0.271 1.000 +02° 18' 30.00" 1.000E-01 0.949 F 0.252 0.015 18.9 V 0.70 0.21 i 691 1.06 Yes Yes
1998SO O c 1998-09-17.27365 1.000E-05 00:44:50.110 1.500E-01 0.671 F -0.148 0.078 +00° 55' 45.60" 1.000E-01 0.671 F 0.076 -0.304 19.1 V 0.70 0.50 i 691 0.47 Yes Yes
1998SO O c 1998-09-17.28009 1.000E-05 00:44:47.550 1.500E-01 0.671 F -0.148 -0.574 +00° 55' 03.70" 1.000E-01 0.671 F 0.076 -0.155 18.9 V 0.70 0.30 i 691 0.90 Yes Yes
1998SO O c 1998-09-17.28611 1.000E-05 00:44:45.230 1.500E-01 0.671 F -0.148 -0.060 +00° 54' 23.70" 1.000E-01 0.671 F 0.076 -0.841 18.9 V 0.70 0.30 i 691 1.26 Yes Yes
1998SO O c 1998-09-17.42248 1.000E-05 00:43:51.690 1.500E-01 0.671 F -0.148 0.202 +00° 39' 31.50" 1.000E-01 0.671 F 0.076 -0.537 18.6 V 0.70 0.01 i 691 0.86 Yes Yes
1998SO O c 1998-09-17.43358 1.000E-05 00:43:47.290 1.500E-01 0.671 F -0.148 -0.439 +00° 38' 19.40" 1.000E-01 0.671 F 0.076 0.166 18.5 V 0.70 -0.08 i 691 0.71 Yes Yes
1998SH2 O c 1998-09-17.44420 1.000E-05 01:06:22.710 1.500E-01 0.600 F -0.180 -0.050 +03° 05' 15.80" 1.000E-01 0.600 F 0.055 -0.435 19.1 V 0.70 0.19 i 691 0.74 Yes Yes
1998SH2 O c 1998-09-17.46535 1.000E-05 01:06:17.160 1.500E-01 0.600 F -0.180 -0.438 +03° 05' 06.60" 1.000E-01 0.600 F 0.055 -0.316 19.2 V 0.70 0.29 i 691 0.92 Yes Yes
1998SH2 O c 1998-09-17.49046 1.000E-05 01:06:10.670 1.500E-01 0.600 F -0.180 -0.018 +03° 04' 55.50" 1.000E-01 0.600 F 0.055 -0.330 19.2 V 0.70 0.29 i 691 0.56 Yes Yes
1998SH2 O c 1998-09-18.31880 1.000E-05 01:02:52.360 1.500E-01 0.735 F -0.260 0.307 +02° 59' 03.70" 1.000E-01 0.735 F 0.217 -0.048 19.3 V 0.70 0.35 i 691 0.43 Yes Yes
1998SH2 O c 1998-09-18.32284 1.000E-05 01:02:51.370 1.500E-01 0.735 F -0.260 0.503 +02° 59' 01.90" 1.000E-01 0.735 F 0.217 -0.172 19.2 V 0.70 0.25 i 691 0.73 Yes Yes
1998SH2 O c 1998-09-18.32688 1.000E-05 01:02:50.360 1.500E-01 0.735 F -0.260 0.400 +02° 59' 00.20" 1.000E-01 0.735 F 0.217 -0.195 19.3 V 0.70 0.35 i 691 0.61 Yes Yes
1998SH2 O c 1998-09-18.47723 1.000E-05 01:02:13.290 1.500E-01 0.735 F -0.260 0.186 +02° 57' 57.30" 1.000E-01 0.735 F 0.217 -0.181 19.2 V 0.70 0.24 i 691 0.36 Yes Yes
1998SH2 O c 1998-09-18.48130 1.000E-05 01:02:12.310 1.500E-01 0.735 F -0.260 0.295 +02° 57' 55.70" 1.000E-01 0.735 F 0.217 -0.066 19.1 V 0.70 0.14 i 691 0.42 Yes Yes
1998SH2 O c 1998-09-18.48538 1.000E-05 01:02:11.330 1.500E-01 0.735 F -0.260 0.422 +02° 57' 53.80" 1.000E-01 0.735 F 0.217 -0.246 19.1 V 0.70 0.14 i 691 0.67 Yes Yes
1998SH2 O c 1998-09-19.34069 1.000E-05 00:58:59.500 1.500E-01 0.600 F -0.272 0.311 +02° 52' 06.70" 1.000E-01 0.600 F 0.385 -0.695 19.0 V 0.70 0.00 i 691 1.28 Yes Yes
1998SH2 O c 1998-09-19.34452 1.000E-05 00:58:58.610 1.500E-01 0.600 F -0.272 0.334 +02° 52' 05.30" 1.000E-01 0.600 F 0.385 -0.574 18.9 V 0.70 -0.10 i 691 1.12 Yes Yes

[1-200] [201-400] [401-600] [601-800] [801-1000] [1001-1200] [1201-1400] [1401-1600] [1601-1800] [1801-2000] [2001-2200] [2201-2400] [2401-2600] [2601-2800] [2801-3000] [3001-3200] [3201-3400] [3401-3600] [3601-3800] [3801-4000] [4001-4200] [4201-4400] [4401-4600] [4601-4800] [4801-5000] [5001-5200] [5201-5400] [5401-5600] [5601-5800] [5801-6000] [6001-6200] [6201-6400] [6401-6600] [6601-6800] [6801-7000] [7001-7200] [7201-7400] [7401-7600] [7601-7800] [7801-8000] [8001-8200] [8201-8400] [8401-8600] [8601-8800] [8801-9000] [9001-9200] [9201-9400] [9401-9600] [9601-9800] [9801-10000] [10001-10200] [10201-10400] [10401-10600] [10601-10800] [10801-11000] [11001-11200] [11201-11400] [11401-11600] [11601-11800] [11801-12000] [12001-12200] [12201-12400] [12401-12600] [12601-12800] [12801-13000] [13001-13200] [13201-13400] [13401-13600] [13601-13800] [13801-14000] [14001-14200] [14201-14400] [14401-14600] [14601-14800] [14801-15000] [15001-15200] [15201-15400] [15401-15600] [15601-15800] [15801-16000] [16001-16200] [16201-16400] [16401-16600] [16601-16800] [16801-17000] [17001-17200] [17201-17400] [17401-17600] [17601-17800] [17801-18000] [18001-18200] [18201-18400] [18401-18600] [18601-18800] [18801-19000] [19001-19200] [19201-19400] [19401-19600] [19601-19800] [19801-20000] [20001-20200] [20201-20400] [20401-20600] [20601-20800] [20801-21000] [21001-21200] [21201-21400] [21401-21600] [21601-21800] [21801-22000] [22001-22200] [22201-22400] [22401-22600] [22601-22800] [22801-23000] [23001-23200] [23201-23400] [23401-23600] [23601-23800] [23801-24000] [24001-24200] [24201-24400] [24401-24600] [24601-24800] [24801-25000] [25001-25200] [25201-25400] [25401-25600] [25601-25800] [25801-26000] [26001-26200] [26201-26400] [26401-26600] [26601-26800] [26801-27000] [27001-27200] [27201-27400] [27401-27600] [27601-27800] [27801-28000] [28001-28200] [28201-28400] [28401-28600] [28601-28800] [28801-29000] [29001-29200] [29201-29400] [29401-29600] [29601-29800] [29801-30000] [30001-30200] [30201-30400] [30401-30600] [30601-30800] [30801-31000] [31001-31200] [31201-31400] [31401-31600] [31601-31800] [31801-32000] [32001-32200] [32201-32400] [32401-32600] [32601-32800] [32801-33000] [33001-33200] [33201-33400] [33401-33600] [33601-33800] [33801-34000] [34001-34200] [34201-34400] [34401-34600] [34601-34800] [34801-35000] [35001-35200] [35201-35400] [35401-35600] [35601-35800] [35801-36000] [36001-36200] [36201-36400] [36401-36600] [36601-36800] [36801-37000] [37001-37200] [37201-37400] [37401-37600] [37601-37800] [37801-38000] [38001-38200] [38201-38400] [38401-38600] [38601-38800] [38801-39000] [39001-39200] [39201-39400] [39401-39600] [39601-39800] [39801-40000] [40001-40200] [40201-40400] [40401-40600] [40601-40800] [40801-41000] [41001-41200] [41201-41400] [41401-41600] [41601-41800] [41801-42000] [42001-42200] [42201-42400] [42401-42600] [42601-42800] [42801-43000] [43001-43200] [43201-43400] [43401-43600] [43601-43800] [43801-44000] [44001-44200] [44201-44400] [44401-44600] [44601-44800] [44801-45000] [45001-45200] [45201-45400] [45401-45600] [45601-45800] [45801-46000] [46001-46200] [46201-46400] [46401-46600] [46601-46800] [46801-47000] [47001-47200] [47201-47400] [47401-47600] [47601-47800] [47801-48000] [48001-48200] [48201-48400] [48401-48600] [48601-48800] [48801-49000] [49001-49200] [49201-49400] [49401-49600] [49601-49800] [49801-50000] [50001-50200] [50201-50400] [50401-50600] [50601-50741]